Time,TemperatureF,DewpointF,PressureIn,WindDirection,WindDirectionDegrees,WindSpeedMPH,WindSpeedGustMPH,Humidity,HourlyPrecipIn,Conditions,Clouds,dailyrainin,SoftwareType,DateUTC
2013-10-14 00:00:00,63.5,58.2,30.36,NW,315,0.0,0.0,83,0.00,,,0.00,WUHU216HW,2013-10-14 04:00:00,
2013-10-14 00:05:00,63.3,58.0,30.37,NW,315,0.0,0.0,83,0.00,,,0.00,WUHU216HW,2013-10-14 04:05:00,
2013-10-14 00:10:00,63.3,58.0,30.36,NW,315,0.0,0.0,83,0.00,,,0.00,WUHU216HW,2013-10-14 04:10:00,
2013-10-14 00:15:00,63.1,57.8,30.36,NW,315,0.0,0.0,83,0.00,,,0.00,WUHU216HW,2013-10-14 04:15:00,
2013-10-14 00:20:00,63.1,58.2,30.36,NW,315,0.0,0.0,84,0.00,,,0.00,WUHU216HW,2013-10-14 04:20:00,
2013-10-14 00:25:00,62.9,58.0,30.36,NW,315,0.0,0.0,84,0.00,,,0.00,WUHU216HW,2013-10-14 04:25:00,
2013-10-14 00:30:00,62.7,57.8,30.37,NW,315,0.0,0.0,84,0.00,,,0.00,WUHU216HW,2013-10-14 04:30:00,
2013-10-14 00:35:00,62.7,57.8,30.36,NW,315,0.0,0.0,84,0.00,,,0.00,WUHU216HW,2013-10-14 04:35:00,
2013-10-14 00:40:00,62.7,57.8,30.36,NW,315,0.0,0.0,84,0.00,,,0.00,WUHU216HW,2013-10-14 04:40:00,
2013-10-14 00:45:00,62.6,57.6,30.36,NW,315,0.0,0.0,84,0.00,,,0.00,WUHU216HW,2013-10-14 04:45:00,
2013-10-14 00:50:00,62.4,57.4,30.36,NW,315,0.0,0.0,84,0.00,,,0.00,WUHU216HW,2013-10-14 04:50:00,
2013-10-14 00:55:00,62.4,57.4,30.36,NW,315,0.0,0.0,84,0.00,,,0.00,WUHU216HW,2013-10-14 04:55:00,
2013-10-14 01:00:00,62.4,57.4,30.35,NW,315,0.0,0.0,84,0.00,,,0.00,WUHU216HW,2013-10-14 05:00:00,
2013-10-14 01:05:00,62.2,57.3,30.36,NW,315,0.0,0.0,84,0.00,,,0.00,WUHU216HW,2013-10-14 05:05:00,
2013-10-14 01:10:00,62.2,57.3,30.36,NW,315,0.0,0.0,84,0.00,,,0.00,WUHU216HW,2013-10-14 05:10:00,
2013-10-14 01:15:00,62.2,57.6,30.36,NW,315,0.0,0.0,85,0.00,,,0.00,WUHU216HW,2013-10-14 05:15:00,
2013-10-14 01:20:00,62.0,57.4,30.36,NW,315,0.0,0.0,85,0.00,,,0.00,WUHU216HW,2013-10-14 05:20:00,
2013-10-14 01:25:00,62.0,57.4,30.36,NW,315,0.0,0.0,85,0.00,,,0.00,WUHU216HW,2013-10-14 05:25:00,
2013-10-14 01:30:00,61.8,57.3,30.36,NW,315,0.0,0.0,85,0.00,,,0.00,WUHU216HW,2013-10-14 05:30:00,
2013-10-14 01:35:00,61.8,57.3,30.36,NW,315,0.0,0.0,85,0.00,,,0.00,WUHU216HW,2013-10-14 05:35:00,
2013-10-14 01:40:00,61.8,57.3,30.36,NW,315,0.0,0.0,85,0.00,,,0.00,WUHU216HW,2013-10-14 05:40:00,
2013-10-14 01:45:00,61.7,57.1,30.36,NW,315,0.0,0.0,85,0.00,,,0.00,WUHU216HW,2013-10-14 05:45:00,
2013-10-14 01:50:00,61.7,57.1,30.36,NW,315,0.0,0.0,85,0.00,,,0.00,WUHU216HW,2013-10-14 05:50:00,
2013-10-14 01:55:00,61.7,57.1,30.36,NW,315,0.0,0.0,85,0.00,,,0.00,WUHU216HW,2013-10-14 05:55:00,
2013-10-14 02:00:00,61.7,57.1,30.36,NW,315,0.0,0.0,85,0.00,,,0.00,WUHU216HW,2013-10-14 06:00:00,
2013-10-14 02:05:00,61.7,57.1,30.37,NW,315,0.0,0.0,85,0.00,,,0.00,WUHU216HW,2013-10-14 06:05:00,
2013-10-14 02:10:00,61.7,57.1,30.36,NW,315,0.0,0.0,85,0.00,,,0.00,WUHU216HW,2013-10-14 06:10:00,
2013-10-14 02:15:00,61.7,57.1,30.37,NW,315,0.0,0.0,85,0.00,,,0.00,WUHU216HW,2013-10-14 06:15:00,
2013-10-14 02:21:00,61.7,57.1,30.37,NW,315,0.0,0.0,85,0.00,,,0.00,WUHU216HW,2013-10-14 06:21:00,
2013-10-14 02:26:00,61.5,56.9,30.36,NW,315,0.0,0.0,85,0.00,,,0.00,WUHU216HW,2013-10-14 06:26:00,
2013-10-14 02:31:00,61.5,56.9,30.36,NW,315,0.0,0.0,85,0.00,,,0.00,WUHU216HW,2013-10-14 06:31:00,
2013-10-14 02:36:00,61.5,56.9,30.36,NW,315,0.0,0.0,85,0.00,,,0.00,WUHU216HW,2013-10-14 06:36:00,
2013-10-14 02:41:00,61.3,57.1,30.36,NW,315,0.0,0.0,86,0.00,,,0.00,WUHU216HW,2013-10-14 06:41:00,
2013-10-14 02:46:00,61.3,57.1,30.36,NW,315,0.0,0.0,86,0.00,,,0.00,WUHU216HW,2013-10-14 06:46:00,
2013-10-14 02:51:00,61.3,57.1,30.36,NW,315,0.0,0.0,86,0.00,,,0.00,WUHU216HW,2013-10-14 06:51:00,
2013-10-14 02:56:00,61.3,57.1,30.35,NW,315,0.0,0.0,86,0.00,,,0.00,WUHU216HW,2013-10-14 06:56:00,
2013-10-14 03:01:00,61.3,57.1,30.36,NW,315,0.0,0.0,86,0.00,,,0.00,WUHU216HW,2013-10-14 07:01:00,
2013-10-14 03:06:00,61.3,57.1,30.36,NW,315,0.0,0.0,86,0.00,,,0.00,WUHU216HW,2013-10-14 07:06:00,
2013-10-14 03:11:00,61.3,57.1,30.35,NW,315,0.0,0.0,86,0.00,,,0.00,WUHU216HW,2013-10-14 07:11:00,
2013-10-14 03:16:00,61.3,57.1,30.35,NW,315,0.0,0.0,86,0.00,,,0.00,WUHU216HW,2013-10-14 07:16:00,
2013-10-14 03:21:00,61.3,57.1,30.35,NW,315,0.0,0.0,86,0.00,,,0.00,WUHU216HW,2013-10-14 07:21:00,
2013-10-14 03:26:00,61.1,56.9,30.35,NW,315,0.0,0.0,86,0.00,,,0.00,WUHU216HW,2013-10-14 07:26:00,
2013-10-14 03:31:00,60.9,56.7,30.35,NW,315,0.0,0.0,86,0.00,,,0.00,WUHU216HW,2013-10-14 07:31:00,
2013-10-14 03:36:00,60.9,56.7,30.35,NW,315,0.0,0.0,86,0.00,,,0.00,WUHU216HW,2013-10-14 07:36:00,
2013-10-14 03:41:00,60.9,56.7,30.35,NW,315,0.0,0.0,86,0.00,,,0.00,WUHU216HW,2013-10-14 07:41:00,
2013-10-14 03:46:00,60.6,56.4,30.35,NW,315,0.0,0.0,86,0.00,,,0.00,WUHU216HW,2013-10-14 07:46:00,
2013-10-14 03:51:00,60.6,56.4,30.35,NW,315,0.0,0.0,86,0.00,,,0.00,WUHU216HW,2013-10-14 07:51:00,
2013-10-14 03:56:00,60.4,56.2,30.35,NW,315,0.0,0.0,86,0.00,,,0.00,WUHU216HW,2013-10-14 07:56:00,
2013-10-14 04:01:00,60.4,56.2,30.35,NW,315,0.0,0.0,86,0.00,,,0.00,WUHU216HW,2013-10-14 08:01:00,
2013-10-14 04:06:00,60.4,56.2,30.35,NW,315,0.0,0.0,86,0.00,,,0.00,WUHU216HW,2013-10-14 08:06:00,
2013-10-14 04:11:00,60.2,56.0,30.35,NW,315,0.0,0.0,86,0.00,,,0.00,WUHU216HW,2013-10-14 08:11:00,
2013-10-14 04:16:00,60.0,55.9,30.35,NW,315,0.0,0.0,86,0.00,,,0.00,WUHU216HW,2013-10-14 08:16:00,
2013-10-14 04:21:00,60.0,55.9,30.35,NW,315,0.0,0.0,86,0.00,,,0.00,WUHU216HW,2013-10-14 08:21:00,
2013-10-14 04:26:00,59.9,55.7,30.35,NW,315,0.0,0.0,86,0.00,,,0.00,WUHU216HW,2013-10-14 08:26:00,
2013-10-14 04:31:00,59.7,55.5,30.35,NW,315,0.0,0.0,86,0.00,,,0.00,WUHU216HW,2013-10-14 08:31:00,
2013-10-14 04:36:00,59.7,55.5,30.35,NW,315,0.0,0.0,86,0.00,,,0.00,WUHU216HW,2013-10-14 08:36:00,
2013-10-14 04:41:00,59.7,55.5,30.35,NW,315,0.0,0.0,86,0.00,,,0.00,WUHU216HW,2013-10-14 08:41:00,
2013-10-14 04:46:00,59.7,55.8,30.35,NW,315,0.0,0.0,87,0.00,,,0.00,WUHU216HW,2013-10-14 08:46:00,
2013-10-14 04:51:00,59.7,55.8,30.35,NW,315,0.0,0.0,87,0.00,,,0.00,WUHU216HW,2013-10-14 08:51:00,
2013-10-14 04:56:00,59.7,55.8,30.35,NW,315,0.0,0.0,87,0.00,,,0.00,WUHU216HW,2013-10-14 08:56:00,
2013-10-14 05:01:00,59.7,55.8,30.35,NW,315,0.0,0.0,87,0.00,,,0.00,WUHU216HW,2013-10-14 09:01:00,
2013-10-14 05:06:00,59.7,55.8,30.35,NW,315,0.0,0.0,87,0.00,,,0.00,WUHU216HW,2013-10-14 09:06:00,
2013-10-14 05:11:00,59.7,55.8,30.35,NW,315,0.0,0.0,87,0.00,,,0.00,WUHU216HW,2013-10-14 09:11:00,
2013-10-14 05:16:00,59.7,55.8,30.35,NW,315,0.0,0.0,87,0.00,,,0.00,WUHU216HW,2013-10-14 09:16:00,
2013-10-14 05:21:00,59.7,55.8,30.35,NW,315,0.0,0.0,87,0.00,,,0.00,WUHU216HW,2013-10-14 09:21:00,
2013-10-14 05:26:00,59.7,55.8,30.35,NW,315,0.0,0.0,87,0.00,,,0.00,WUHU216HW,2013-10-14 09:26:00,
2013-10-14 05:31:00,59.7,55.8,30.35,NW,315,0.0,0.0,87,0.00,,,0.00,WUHU216HW,2013-10-14 09:31:00,
2013-10-14 05:36:00,59.7,55.8,30.35,NW,315,0.0,0.0,87,0.00,,,0.00,WUHU216HW,2013-10-14 09:36:00,
2013-10-14 05:41:00,59.5,55.6,30.34,NW,315,0.0,0.0,87,0.00,,,0.00,WUHU216HW,2013-10-14 09:41:00,
2013-10-14 05:46:00,59.7,55.8,30.35,NW,315,0.0,0.0,87,0.00,,,0.00,WUHU216HW,2013-10-14 09:46:00,
2013-10-14 05:51:00,59.7,55.8,30.35,NW,315,0.0,0.0,87,0.00,,,0.00,WUHU216HW,2013-10-14 09:51:00,
2013-10-14 05:56:00,59.7,55.8,30.35,NW,315,0.0,0.0,87,0.00,,,0.00,WUHU216HW,2013-10-14 09:56:00,
2013-10-14 06:01:00,59.7,55.8,30.35,NW,315,0.0,0.0,87,0.00,,,0.00,WUHU216HW,2013-10-14 10:01:00,
2013-10-14 06:06:00,59.7,55.8,30.35,NW,315,0.0,0.0,87,0.00,,,0.00,WUHU216HW,2013-10-14 10:06:00,
2013-10-14 06:11:00,59.7,55.8,30.35,NW,315,0.0,0.0,87,0.00,,,0.00,WUHU216HW,2013-10-14 10:11:00,
2013-10-14 06:16:00,59.7,55.8,30.35,NW,315,0.0,0.0,87,0.00,,,0.00,WUHU216HW,2013-10-14 10:16:00,
2013-10-14 06:21:00,59.7,55.8,30.35,NW,315,0.0,0.0,87,0.00,,,0.00,WUHU216HW,2013-10-14 10:21:00,
2013-10-14 06:26:00,59.5,55.6,30.36,NW,315,0.0,0.0,87,0.00,,,0.00,WUHU216HW,2013-10-14 10:26:00,
2013-10-14 06:31:00,59.5,55.6,30.36,NW,315,0.0,0.0,87,0.00,,,0.00,WUHU216HW,2013-10-14 10:31:00,
2013-10-14 06:36:00,59.5,55.6,30.36,NW,315,0.0,0.0,87,0.00,,,0.00,WUHU216HW,2013-10-14 10:36:00,
2013-10-14 06:41:00,59.5,55.6,30.36,NW,315,0.0,0.0,87,0.00,,,0.00,WUHU216HW,2013-10-14 10:41:00,
2013-10-14 06:46:00,59.5,55.6,30.36,NW,315,0.0,0.0,87,0.00,,,0.00,WUHU216HW,2013-10-14 10:46:00,
2013-10-14 06:51:00,59.5,55.6,30.36,NW,315,0.0,0.0,87,0.00,,,0.00,WUHU216HW,2013-10-14 10:51:00,
2013-10-14 06:56:00,59.5,55.6,30.36,NW,315,0.0,0.0,87,0.00,,,0.00,WUHU216HW,2013-10-14 10:56:00,
2013-10-14 07:01:00,59.5,55.6,30.36,NW,315,0.0,0.0,87,0.00,,,0.00,WUHU216HW,2013-10-14 11:01:00,
2013-10-14 07:06:00,59.3,55.5,30.36,NW,315,0.0,0.0,87,0.00,,,0.00,WUHU216HW,2013-10-14 11:06:00,
2013-10-14 07:11:00,59.3,55.5,30.37,NW,315,0.0,0.0,87,0.00,,,0.00,WUHU216HW,2013-10-14 11:11:00,
2013-10-14 07:16:00,59.1,55.3,30.37,NW,315,0.0,0.0,87,0.00,,,0.00,WUHU216HW,2013-10-14 11:16:00,
2013-10-14 07:21:00,59.1,55.3,30.37,NW,315,0.0,0.0,87,0.00,,,0.00,WUHU216HW,2013-10-14 11:21:00,
2013-10-14 07:26:00,59.1,55.3,30.37,NW,315,0.0,0.0,87,0.00,,,0.00,WUHU216HW,2013-10-14 11:26:00,
2013-10-14 07:31:00,59.0,55.4,30.37,NW,315,0.0,0.0,88,0.00,,,0.00,WUHU216HW,2013-10-14 11:31:00,
2013-10-14 07:36:00,59.0,55.4,30.37,NW,315,0.0,0.0,88,0.00,,,0.00,WUHU216HW,2013-10-14 11:36:00,
2013-10-14 07:41:00,59.0,55.4,30.37,NW,315,0.0,0.0,88,0.00,,,0.00,WUHU216HW,2013-10-14 11:41:00,
2013-10-14 07:46:00,59.0,55.2,30.38,NW,315,0.0,0.0,88,0.00,,,0.00,WUHU216HW,2013-10-14 11:46:00,
2013-10-14 07:51:00,59.0,55.4,30.38,NW,315,0.0,0.0,88,0.00,,,0.00,WUHU216HW,2013-10-14 11:51:00,
2013-10-14 07:56:00,59.0,55.4,30.38,NW,315,0.0,0.0,88,0.00,,,0.00,WUHU216HW,2013-10-14 11:56:00,
2013-10-14 08:01:00,59.0,55.6,30.38,NW,315,0.0,0.0,88,0.00,,,0.00,WUHU216HW,2013-10-14 12:01:00,
2013-10-14 08:06:00,59.0,55.4,30.38,NW,315,0.0,0.0,88,0.00,,,0.00,WUHU216HW,2013-10-14 12:06:00,
2013-10-14 08:11:00,59.1,55.6,30.38,NW,315,0.0,0.0,88,0.00,,,0.00,WUHU216HW,2013-10-14 12:11:00,
2013-10-14 08:16:00,58.8,55.2,30.39,NW,315,0.0,0.0,88,0.00,,,0.00,WUHU216HW,2013-10-14 12:16:00,
2013-10-14 08:21:00,59.0,55.4,30.39,NW,315,0.0,0.0,88,0.00,,,0.00,WUHU216HW,2013-10-14 12:21:00,
2013-10-14 08:26:00,59.1,55.6,30.38,NW,315,0.0,0.0,88,0.00,,,0.00,WUHU216HW,2013-10-14 12:26:00,
2013-10-14 08:31:00,59.1,55.6,30.39,NW,315,0.0,0.0,88,0.00,,,0.00,WUHU216HW,2013-10-14 12:31:00,
2013-10-14 08:36:00,59.0,55.4,30.39,NW,315,0.0,0.0,88,0.00,,,0.00,WUHU216HW,2013-10-14 12:36:00,
2013-10-14 08:41:00,59.1,55.6,30.39,NW,315,0.0,0.0,88,0.00,,,0.00,WUHU216HW,2013-10-14 12:41:00,
2013-10-14 08:46:00,59.3,55.6,30.39,NW,315,0.0,0.0,88,0.00,,,0.00,WUHU216HW,2013-10-14 12:46:00,
2013-10-14 08:51:00,59.5,56.0,30.39,NW,315,0.0,0.0,88,0.00,,,0.00,WUHU216HW,2013-10-14 12:51:00,
2013-10-14 08:56:00,59.5,56.0,30.39,NW,315,0.0,0.0,88,0.00,,,0.00,WUHU216HW,2013-10-14 12:56:00,
2013-10-14 09:01:00,59.5,56.3,30.39,NW,315,0.0,0.0,89,0.00,,,0.00,WUHU216HW,2013-10-14 13:01:00,
2013-10-14 09:06:00,59.5,56.3,30.39,NW,315,0.0,0.0,89,0.00,,,0.00,WUHU216HW,2013-10-14 13:06:00,
2013-10-14 09:11:00,59.7,56.5,30.39,NW,315,0.0,0.0,89,0.00,,,0.00,WUHU216HW,2013-10-14 13:11:00,
2013-10-14 09:16:00,59.9,56.6,30.39,NW,315,0.0,0.0,89,0.00,,,0.00,WUHU216HW,2013-10-14 13:16:00,
2013-10-14 09:21:00,59.9,56.6,30.39,NW,315,0.0,0.0,89,0.00,,,0.00,WUHU216HW,2013-10-14 13:21:00,
2013-10-14 09:26:00,60.0,56.8,30.39,NW,315,0.0,0.0,89,0.00,,,0.00,WUHU216HW,2013-10-14 13:26:00,
2013-10-14 09:31:00,60.0,56.8,30.39,NW,315,0.0,0.0,89,0.00,,,0.00,WUHU216HW,2013-10-14 13:31:00,
2013-10-14 09:36:00,60.4,57.2,30.40,NW,315,0.0,0.0,89,0.00,,,0.00,WUHU216HW,2013-10-14 13:36:00,
2013-10-14 09:41:00,60.4,57.2,30.39,NW,315,0.0,0.0,89,0.00,,,0.00,WUHU216HW,2013-10-14 13:41:00,
2013-10-14 09:46:00,60.6,57.4,30.39,NW,315,0.0,0.0,89,0.00,,,0.00,WUHU216HW,2013-10-14 13:46:00,
2013-10-14 09:51:00,60.9,57.7,30.39,NW,315,0.0,0.0,89,0.00,,,0.00,WUHU216HW,2013-10-14 13:51:00,
2013-10-14 09:56:00,61.3,58.1,30.39,NW,315,0.0,0.0,89,0.00,,,0.00,WUHU216HW,2013-10-14 13:56:00,
2013-10-14 10:01:00,61.5,58.2,30.39,NW,315,0.0,0.0,89,0.00,,,0.00,WUHU216HW,2013-10-14 14:01:00,
2013-10-14 10:06:00,61.7,58.4,30.39,NW,315,0.0,0.0,89,0.00,,,0.00,WUHU216HW,2013-10-14 14:06:00,
2013-10-14 10:11:00,61.7,58.1,30.39,NW,315,0.0,0.0,88,0.00,,,0.00,WUHU216HW,2013-10-14 14:11:00,
2013-10-14 10:16:00,61.8,58.3,30.39,NW,315,0.0,0.0,88,0.00,,,0.00,WUHU216HW,2013-10-14 14:16:00,
2013-10-14 10:21:00,62.0,58.4,30.39,NW,315,0.0,0.0,88,0.00,,,0.00,WUHU216HW,2013-10-14 14:21:00,
2013-10-14 10:26:00,62.0,58.4,30.39,NW,315,0.0,0.0,88,0.00,,,0.00,WUHU216HW,2013-10-14 14:26:00,
2013-10-14 10:31:00,62.4,58.8,30.39,NW,315,0.0,0.0,88,0.00,,,0.00,WUHU216HW,2013-10-14 14:31:00,
2013-10-14 10:36:00,62.4,58.5,30.39,NW,315,0.0,0.0,87,0.00,,,0.00,WUHU216HW,2013-10-14 14:36:00,
2013-10-14 10:41:00,62.6,58.6,30.39,NW,315,0.0,0.0,87,0.00,,,0.00,WUHU216HW,2013-10-14 14:41:00,
2013-10-14 10:46:00,62.9,59.0,30.39,NW,315,0.0,0.0,87,0.00,,,0.00,WUHU216HW,2013-10-14 14:46:00,
2013-10-14 10:51:00,63.1,59.2,30.39,NW,315,0.0,0.0,87,0.00,,,0.00,WUHU216HW,2013-10-14 14:51:00,
2013-10-14 10:56:00,63.3,59.0,30.39,NW,315,0.0,0.0,86,0.00,,,0.00,WUHU216HW,2013-10-14 14:56:00,
2013-10-14 11:01:00,63.5,59.2,30.39,NW,315,0.0,0.0,86,0.00,,,0.00,WUHU216HW,2013-10-14 15:01:00,
2013-10-14 11:07:00,63.5,58.9,30.39,NW,315,0.0,0.0,85,0.00,,,0.00,WUHU216HW,2013-10-14 15:07:00,
2013-10-14 11:12:00,63.6,59.0,30.39,NW,315,0.0,0.0,85,0.00,,,0.00,WUHU216HW,2013-10-14 15:12:00,
2013-10-14 11:17:00,64.0,59.4,30.39,NW,315,0.0,0.0,85,0.00,,,0.00,WUHU216HW,2013-10-14 15:17:00,
2013-10-14 11:22:00,64.2,59.6,30.39,NW,315,0.0,0.0,85,0.00,,,0.00,WUHU216HW,2013-10-14 15:22:00,
2013-10-14 11:27:00,64.4,59.4,30.39,NW,315,0.0,0.0,84,0.00,,,0.00,WUHU216HW,2013-10-14 15:27:00,
2013-10-14 11:32:00,64.7,59.8,30.39,NW,315,0.0,0.0,84,0.00,,,0.00,WUHU216HW,2013-10-14 15:32:00,
2013-10-14 11:37:00,64.9,59.9,30.38,NW,315,0.0,0.0,84,0.00,,,0.00,WUHU216HW,2013-10-14 15:37:00,
2013-10-14 11:42:00,65.1,59.8,30.38,NW,315,0.0,0.0,83,0.00,,,0.00,WUHU216HW,2013-10-14 15:42:00,
2013-10-14 11:47:00,65.3,59.9,30.38,NW,315,0.0,0.0,83,0.00,,,0.00,WUHU216HW,2013-10-14 15:47:00,
2013-10-14 11:52:00,65.4,60.4,30.39,NW,315,0.0,0.0,84,0.00,,,0.00,WUHU216HW,2013-10-14 15:52:00,
2013-10-14 11:57:00,65.8,60.5,30.38,NW,315,0.0,0.0,83,0.00,,,0.00,WUHU216HW,2013-10-14 15:57:00,
2013-10-14 12:02:00,66.0,60.6,30.38,NW,315,0.0,0.0,83,0.00,,,0.00,WUHU216HW,2013-10-14 16:02:00,
2013-10-14 12:07:00,66.2,60.8,30.38,WSW,248,0.0,0.0,83,0.00,,,0.00,WUHU216HW,2013-10-14 16:07:00,
2013-10-14 12:12:00,66.3,61.0,30.38,WSW,248,0.0,0.0,83,0.00,,,0.00,WUHU216HW,2013-10-14 16:12:00,
2013-10-14 12:17:00,66.5,61.2,30.38,WSW,248,0.0,0.0,83,0.00,,,0.00,WUHU216HW,2013-10-14 16:17:00,
2013-10-14 12:22:00,66.7,61.0,30.38,WSW,248,0.0,0.0,82,0.00,,,0.00,WUHU216HW,2013-10-14 16:22:00,
2013-10-14 12:27:00,66.7,61.0,30.38,WSW,248,0.0,0.0,82,0.00,,,0.00,WUHU216HW,2013-10-14 16:27:00,
2013-10-14 12:32:00,66.7,61.0,30.38,WSW,248,0.0,0.0,82,0.00,,,0.00,WUHU216HW,2013-10-14 16:32:00,
2013-10-14 12:37:00,66.7,61.0,30.38,WSW,248,0.0,0.0,82,0.00,,,0.00,WUHU216HW,2013-10-14 16:37:00,
2013-10-14 12:42:00,66.7,61.0,30.38,WSW,248,0.0,0.0,82,0.00,,,0.00,WUHU216HW,2013-10-14 16:42:00,
2013-10-14 12:47:00,66.7,61.0,30.38,WSW,248,0.0,0.0,82,0.00,,,0.00,WUHU216HW,2013-10-14 16:47:00,
2013-10-14 12:52:00,66.7,61.0,30.38,WSW,248,0.0,0.0,82,0.00,,,0.00,WUHU216HW,2013-10-14 16:52:00,
2013-10-14 12:57:00,66.7,61.0,30.38,WSW,248,0.0,0.0,82,0.00,,,0.00,WUHU216HW,2013-10-14 16:57:00,
2013-10-14 13:02:00,66.7,61.0,30.37,WSW,248,0.0,0.0,82,0.00,,,0.00,WUHU216HW,2013-10-14 17:02:00,
2013-10-14 13:07:00,66.7,61.2,30.37,WSW,248,0.0,0.0,82,0.00,,,0.00,WUHU216HW,2013-10-14 17:07:00,
2013-10-14 13:12:00,66.9,61.2,30.37,WSW,248,0.0,0.0,82,0.00,,,0.00,WUHU216HW,2013-10-14 17:12:00,
2013-10-14 13:17:00,66.9,61.2,30.37,WSW,248,0.0,0.0,82,0.00,,,0.00,WUHU216HW,2013-10-14 17:17:00,
2013-10-14 13:22:00,67.1,61.4,30.36,WSW,248,0.0,0.0,82,0.00,,,0.00,WUHU216HW,2013-10-14 17:22:00,
2013-10-14 13:27:00,67.2,61.6,30.36,WSW,248,0.0,0.0,82,0.00,,,0.00,WUHU216HW,2013-10-14 17:27:00,
2013-10-14 13:32:00,67.2,61.3,30.36,WSW,248,0.0,0.0,81,0.00,,,0.00,WUHU216HW,2013-10-14 17:32:00,
2013-10-14 13:37:00,67.2,61.3,30.36,WSW,248,0.0,0.0,81,0.00,,,0.00,WUHU216HW,2013-10-14 17:37:00,
2013-10-14 13:42:00,67.6,61.6,30.35,SSW,203,0.0,0.0,81,0.00,,,0.00,WUHU216HW,2013-10-14 17:42:00,
2013-10-14 13:47:00,67.6,61.6,30.34,WSW,248,0.0,0.0,81,0.00,,,0.00,WUHU216HW,2013-10-14 17:47:00,
2013-10-14 13:52:00,67.8,61.8,30.34,SE,135,0.0,0.0,81,0.00,,,0.00,WUHU216HW,2013-10-14 17:52:00,
2013-10-14 13:57:00,67.8,61.8,30.34,WSW,248,0.0,0.0,81,0.00,,,0.00,WUHU216HW,2013-10-14 17:57:00,
2013-10-14 14:02:00,68.1,62.1,30.34,WSW,248,0.0,0.0,81,0.00,,,0.00,WUHU216HW,2013-10-14 18:02:00,
2013-10-14 14:07:00,68.5,62.5,30.34,SE,135,0.0,0.0,81,0.00,,,0.00,WUHU216HW,2013-10-14 18:07:00,
2013-10-14 14:12:00,68.7,62.3,30.33,SE,135,0.0,0.0,80,0.00,,,0.00,WUHU216HW,2013-10-14 18:12:00,
2013-10-14 14:17:00,68.9,62.5,30.33,SE,135,0.0,0.0,80,0.00,,,0.00,WUHU216HW,2013-10-14 18:17:00,
2013-10-14 14:22:00,69.0,62.2,30.33,SSE,158,0.0,0.0,79,0.00,,,0.00,WUHU216HW,2013-10-14 18:22:00,
2013-10-14 14:27:00,69.0,62.2,30.33,South,180,0.0,0.0,79,0.00,,,0.00,WUHU216HW,2013-10-14 18:27:00,
2013-10-14 14:32:00,69.4,62.6,30.32,South,180,0.0,0.0,79,0.00,,,0.00,WUHU216HW,2013-10-14 18:32:00,
2013-10-14 14:37:00,69.4,62.6,30.32,South,180,0.0,0.0,79,0.00,,,0.00,WUHU216HW,2013-10-14 18:37:00,
2013-10-14 14:42:00,69.4,62.6,30.32,South,180,0.0,0.0,79,0.00,,,0.00,WUHU216HW,2013-10-14 18:42:00,
2013-10-14 14:47:00,69.6,62.7,30.32,South,180,0.0,0.0,79,0.00,,,0.00,WUHU216HW,2013-10-14 18:47:00,
2013-10-14 14:52:00,69.6,62.4,30.32,SE,135,0.0,0.0,78,0.00,,,0.00,WUHU216HW,2013-10-14 18:52:00,
2013-10-14 14:57:00,69.8,62.1,30.32,SE,135,0.0,0.0,77,0.00,,,0.00,WUHU216HW,2013-10-14 18:57:00,
2013-10-14 15:02:00,69.9,62.3,30.32,SE,135,0.0,0.0,77,0.00,,,0.00,WUHU216HW,2013-10-14 19:02:00,
2013-10-14 15:07:00,70.3,62.7,30.32,SSE,158,0.0,0.0,77,0.00,,,0.00,WUHU216HW,2013-10-14 19:07:00,
2013-10-14 15:12:00,70.5,62.9,30.32,SSE,158,0.0,0.0,77,0.00,,,0.00,WUHU216HW,2013-10-14 19:12:00,
2013-10-14 15:17:00,70.7,63.0,30.32,SSE,158,0.0,0.0,77,0.00,,,0.00,WUHU216HW,2013-10-14 19:17:00,
2013-10-14 15:22:00,70.8,62.8,30.32,SSE,158,0.0,0.0,76,0.00,,,0.00,WUHU216HW,2013-10-14 19:22:00,
2013-10-14 15:27:00,71.2,63.2,30.31,SSE,158,0.0,0.0,76,0.00,,,0.00,WUHU216HW,2013-10-14 19:27:00,
2013-10-14 15:32:00,71.2,62.8,30.31,SSE,158,0.0,0.0,75,0.00,,,0.00,WUHU216HW,2013-10-14 19:32:00,
2013-10-14 15:37:00,71.2,63.0,30.31,SSE,158,0.0,0.0,75,0.00,,,0.00,WUHU216HW,2013-10-14 19:37:00,
2013-10-14 15:42:00,71.4,62.6,30.31,SSE,158,0.0,0.0,74,0.00,,,0.00,WUHU216HW,2013-10-14 19:42:00,
2013-10-14 15:47:00,71.4,62.6,30.31,South,180,0.0,0.0,74,0.00,,,0.00,WUHU216HW,2013-10-14 19:47:00,
2013-10-14 15:52:00,71.4,62.2,30.31,SSE,158,0.0,0.0,73,0.00,,,0.00,WUHU216HW,2013-10-14 19:52:00,
2013-10-14 15:57:00,71.4,62.2,30.31,SE,135,0.0,0.0,73,0.00,,,0.00,WUHU216HW,2013-10-14 19:57:00,
2013-10-14 16:02:00,71.4,62.2,30.31,SE,135,0.0,0.0,73,0.00,,,0.00,WUHU216HW,2013-10-14 20:02:00,
2013-10-14 16:07:00,71.4,61.9,30.31,SE,135,0.0,0.0,73,0.00,,,0.00,WUHU216HW,2013-10-14 20:07:00,
2013-10-14 16:12:00,71.4,61.9,30.31,SE,135,0.0,0.0,72,0.00,,,0.00,WUHU216HW,2013-10-14 20:12:00,
2013-10-14 16:17:00,71.2,61.7,30.30,SSE,158,0.0,0.0,72,0.00,,,0.00,WUHU216HW,2013-10-14 20:17:00,
2013-10-14 16:22:00,71.2,61.7,30.31,SE,135,0.0,0.0,72,0.00,,,0.00,WUHU216HW,2013-10-14 20:22:00,
2013-10-14 16:27:00,70.8,61.3,30.31,SSE,158,0.0,0.0,72,0.00,,,0.00,WUHU216HW,2013-10-14 20:27:00,
2013-10-14 16:32:00,70.8,61.3,30.30,SE,135,0.0,0.0,72,0.00,,,0.00,WUHU216HW,2013-10-14 20:32:00,
2013-10-14 16:37:00,70.7,60.8,30.31,SSE,158,0.0,2.9,71,0.00,,,0.00,WUHU216HW,2013-10-14 20:37:00,
2013-10-14 16:42:00,70.5,60.6,30.30,SSE,158,0.0,2.9,71,0.00,,,0.00,WUHU216HW,2013-10-14 20:42:00,
2013-10-14 16:47:00,70.5,60.6,30.30,SE,135,0.0,0.0,71,0.00,,,0.00,WUHU216HW,2013-10-14 20:47:00,
2013-10-14 16:52:00,70.3,60.4,30.30,SSE,158,0.0,0.0,71,0.00,,,0.00,WUHU216HW,2013-10-14 20:52:00,
2013-10-14 16:57:00,70.3,60.4,30.30,SE,135,0.0,0.0,71,0.00,,,0.00,WUHU216HW,2013-10-14 20:57:00,
2013-10-14 17:02:00,70.1,60.2,30.30,SSE,158,0.0,0.0,71,0.00,,,0.00,WUHU216HW,2013-10-14 21:02:00,
2013-10-14 17:07:00,70.1,60.2,30.30,SSE,158,0.0,0.0,71,0.00,,,0.00,WUHU216HW,2013-10-14 21:07:00,
2013-10-14 17:12:00,69.9,60.0,30.30,SE,135,0.0,0.0,71,0.00,,,0.00,WUHU216HW,2013-10-14 21:12:00,
2013-10-14 17:17:00,69.9,60.0,30.30,SE,135,0.0,0.0,71,0.00,,,0.00,WUHU216HW,2013-10-14 21:17:00,
2013-10-14 17:22:00,69.6,59.7,30.30,SE,135,0.0,0.0,71,0.00,,,0.00,WUHU216HW,2013-10-14 21:22:00,
2013-10-14 17:27:00,69.4,59.5,30.30,SSE,158,0.0,0.0,71,0.00,,,0.00,WUHU216HW,2013-10-14 21:27:00,
2013-10-14 17:32:00,69.2,59.4,30.30,SSE,158,0.0,0.0,71,0.00,,,0.00,WUHU216HW,2013-10-14 21:32:00,
2013-10-14 17:37:00,68.7,59.1,30.30,SSE,158,0.0,0.0,71,0.00,,,0.00,WUHU216HW,2013-10-14 21:37:00,
2013-10-14 17:42:00,68.5,58.7,30.30,SE,135,0.0,0.0,71,0.00,,,0.00,WUHU216HW,2013-10-14 21:42:00,
2013-10-14 17:47:00,68.1,58.4,30.31,SSE,158,0.0,0.0,71,0.00,,,0.00,WUHU216HW,2013-10-14 21:47:00,
2013-10-14 17:52:00,68.0,58.6,30.31,SE,135,0.0,0.0,72,0.00,,,0.00,WUHU216HW,2013-10-14 21:52:00,
2013-10-14 17:57:00,67.8,58.4,30.31,SSE,158,0.0,0.0,72,0.00,,,0.00,WUHU216HW,2013-10-14 21:57:00,
2013-10-14 18:02:00,67.6,58.6,30.31,SSE,158,0.0,0.0,73,0.00,,,0.00,WUHU216HW,2013-10-14 22:02:00,
2013-10-14 18:07:00,67.6,58.6,30.30,SSE,158,0.0,0.0,73,0.00,,,0.00,WUHU216HW,2013-10-14 22:07:00,
2013-10-14 18:12:00,67.6,58.6,30.31,SSE,158,0.0,0.0,73,0.00,,,0.00,WUHU216HW,2013-10-14 22:12:00,
2013-10-14 18:17:00,67.4,58.5,30.31,SSE,158,0.0,0.0,73,0.00,,,0.00,WUHU216HW,2013-10-14 22:17:00,
2013-10-14 18:22:00,67.2,58.3,30.31,SSE,158,0.0,0.0,73,0.00,,,0.00,WUHU216HW,2013-10-14 22:22:00,
2013-10-14 18:27:00,67.1,58.1,30.32,SSE,158,0.0,0.0,73,0.00,,,0.00,WUHU216HW,2013-10-14 22:27:00,
2013-10-14 18:32:00,66.7,57.7,30.32,SSE,158,0.0,0.0,73,0.00,,,0.00,WUHU216HW,2013-10-14 22:32:00,
2013-10-14 18:37:00,66.7,57.7,30.32,SSE,158,0.0,0.0,73,0.00,,,0.00,WUHU216HW,2013-10-14 22:37:00,
2013-10-14 18:42:00,66.3,57.4,30.32,SSE,158,0.0,0.0,73,0.00,,,0.00,WUHU216HW,2013-10-14 22:42:00,
2013-10-14 18:47:00,66.3,57.8,30.32,SSE,158,0.0,0.0,74,0.00,,,0.00,WUHU216HW,2013-10-14 22:47:00,
2013-10-14 18:53:00,66.0,57.4,30.32,SE,135,0.0,0.0,74,0.00,,,0.00,WUHU216HW,2013-10-14 22:53:00,
2013-10-14 18:58:00,66.0,57.4,30.32,SE,135,0.0,0.0,74,0.00,,,0.00,WUHU216HW,2013-10-14 22:58:00,
2013-10-14 19:03:00,65.6,57.1,30.32,SSE,158,0.0,0.0,74,0.00,,,0.00,WUHU216HW,2013-10-14 23:03:00,
2013-10-14 19:08:00,65.3,56.7,30.32,SE,135,0.0,0.0,74,0.00,,,0.00,WUHU216HW,2013-10-14 23:08:00,
2013-10-14 19:13:00,65.1,56.6,30.32,SE,135,0.0,0.0,74,0.00,,,0.00,WUHU216HW,2013-10-14 23:13:00,
2013-10-14 19:18:00,64.9,56.4,30.32,SSE,158,0.0,0.0,74,0.00,,,0.00,WUHU216HW,2013-10-14 23:18:00,
2013-10-14 19:23:00,64.5,56.1,30.33,SSE,158,0.0,0.0,74,0.00,,,0.00,WUHU216HW,2013-10-14 23:23:00,
2013-10-14 19:28:00,64.5,56.1,30.33,SSE,158,0.0,0.0,74,0.00,,,0.00,WUHU216HW,2013-10-14 23:28:00,
2013-10-14 19:33:00,64.4,56.3,30.33,SSE,158,0.0,0.0,75,0.00,,,0.00,WUHU216HW,2013-10-14 23:33:00,
2013-10-14 19:38:00,64.2,56.1,30.34,SSE,158,0.0,0.0,75,0.00,,,0.00,WUHU216HW,2013-10-14 23:38:00,
2013-10-14 19:43:00,64.2,56.1,30.33,SSE,158,0.0,0.0,75,0.00,,,0.00,WUHU216HW,2013-10-14 23:43:00,
2013-10-14 19:48:00,64.0,55.9,30.34,SSE,158,0.0,0.0,75,0.00,,,0.00,WUHU216HW,2013-10-14 23:48:00,
2013-10-14 19:53:00,64.0,55.9,30.34,SSE,158,0.0,0.0,75,0.00,,,0.00,WUHU216HW,2013-10-14 23:53:00,
2013-10-14 19:58:00,63.8,56.1,30.34,SSE,158,0.0,0.0,76,0.00,,,0.00,WUHU216HW,2013-10-14 23:58:00,
2013-10-14 20:03:00,63.6,55.9,30.34,SSE,158,0.0,0.0,76,0.00,,,0.00,WUHU216HW,2013-10-15 00:03:00,
2013-10-14 20:08:00,63.6,55.9,30.34,SSE,158,0.0,0.0,76,0.00,,,0.00,WUHU216HW,2013-10-15 00:08:00,
2013-10-14 20:13:00,63.6,55.9,30.34,SSE,158,0.0,0.0,76,0.00,,,0.00,WUHU216HW,2013-10-15 00:13:00,
2013-10-14 20:18:00,63.3,55.5,30.34,SSE,158,0.0,0.0,76,0.00,,,0.00,WUHU216HW,2013-10-15 00:18:00,
2013-10-14 20:23:00,63.3,55.5,30.34,SSE,158,0.0,0.0,76,0.00,,,0.00,WUHU216HW,2013-10-15 00:23:00,
2013-10-14 20:28:00,63.1,55.4,30.34,SSE,158,0.0,0.0,76,0.00,,,0.00,WUHU216HW,2013-10-15 00:28:00,
2013-10-14 20:33:00,63.1,55.7,30.34,SSE,158,0.0,0.0,77,0.00,,,0.00,WUHU216HW,2013-10-15 00:33:00,
2013-10-14 20:38:00,62.9,55.5,30.34,SSE,158,0.0,0.0,77,0.00,,,0.00,WUHU216HW,2013-10-15 00:38:00,
2013-10-14 20:43:00,62.9,55.5,30.34,SSE,158,0.0,0.0,77,0.00,,,0.00,WUHU216HW,2013-10-15 00:43:00,
2013-10-14 20:48:00,62.7,55.4,30.34,SSE,158,0.0,0.0,77,0.00,,,0.00,WUHU216HW,2013-10-15 00:48:00,
2013-10-14 20:53:00,62.6,55.2,30.34,SSE,158,0.0,0.0,77,0.00,,,0.00,WUHU216HW,2013-10-15 00:53:00,
2013-10-14 20:59:00,62.4,55.0,30.34,SSE,158,0.0,0.0,77,0.00,,,0.00,WUHU216HW,2013-10-15 00:59:00,
2013-10-14 21:04:00,62.4,55.0,30.34,SSE,158,0.0,0.0,77,0.00,,,0.00,WUHU216HW,2013-10-15 01:04:00,
2013-10-14 21:09:00,62.2,54.8,30.34,SSE,158,0.0,0.0,77,0.00,,,0.00,WUHU216HW,2013-10-15 01:09:00,
2013-10-14 21:15:00,62.0,55.0,30.34,SSE,158,0.0,0.0,78,0.00,,,0.00,WUHU216HW,2013-10-15 01:15:00,
2013-10-14 21:21:00,61.8,54.9,30.34,SSE,158,0.0,0.0,78,0.00,,,0.00,WUHU216HW,2013-10-15 01:21:00,
2013-10-14 21:26:00,61.7,54.7,30.34,SSE,158,0.0,0.0,78,0.00,,,0.00,WUHU216HW,2013-10-15 01:26:00,
2013-10-14 21:31:00,61.5,54.9,30.34,SSE,158,0.0,0.0,79,0.00,,,0.00,WUHU216HW,2013-10-15 01:31:00,
2013-10-14 21:38:00,61.5,54.9,30.34,SSE,158,0.0,0.0,79,0.00,,,0.00,WUHU216HW,2013-10-15 01:38:00,
2013-10-14 21:48:00,60.9,54.4,30.34,SSE,158,0.0,0.0,79,0.00,,,0.00,WUHU216HW,2013-10-15 01:48:00,
2013-10-14 21:54:00,60.9,54.4,30.34,SSE,158,0.0,0.0,79,0.00,,,0.00,WUHU216HW,2013-10-15 01:54:00,
2013-10-14 21:59:00,60.6,54.1,30.34,SSE,158,0.0,0.0,79,0.00,,,0.00,WUHU216HW,2013-10-15 01:59:00,
2013-10-14 22:04:00,60.4,53.9,30.34,SSE,158,0.0,0.0,79,0.00,,,0.00,WUHU216HW,2013-10-15 02:04:00,
2013-10-14 22:09:00,60.2,53.7,30.34,SSE,158,0.0,0.0,79,0.00,,,0.00,WUHU216HW,2013-10-15 02:09:00,
2013-10-14 22:15:00,60.0,53.9,30.34,SSE,158,0.0,0.0,80,0.00,,,0.00,WUHU216HW,2013-10-15 02:15:00,
2013-10-14 22:20:00,59.9,53.9,30.34,SSE,158,0.0,0.0,80,0.00,,,0.00,WUHU216HW,2013-10-15 02:20:00,
2013-10-14 22:26:00,59.9,53.7,30.34,SSE,158,0.0,0.0,80,0.00,,,0.00,WUHU216HW,2013-10-15 02:26:00,
2013-10-14 22:31:00,59.9,53.7,30.34,SSE,158,0.0,0.0,80,0.00,,,0.00,WUHU216HW,2013-10-15 02:31:00,
2013-10-14 22:36:00,59.7,53.6,30.35,SSE,158,0.0,0.0,80,0.00,,,0.00,WUHU216HW,2013-10-15 02:36:00,
2013-10-14 22:41:00,59.7,53.6,30.34,SSE,158,0.0,0.0,80,0.00,,,0.00,WUHU216HW,2013-10-15 02:41:00,
2013-10-14 22:47:00,59.7,53.9,30.34,SSE,158,0.0,0.0,81,0.00,,,0.00,WUHU216HW,2013-10-15 02:47:00,
2013-10-14 22:52:00,59.7,53.9,30.34,SSE,158,0.0,0.0,81,0.00,,,0.00,WUHU216HW,2013-10-15 02:52:00,
2013-10-14 22:57:00,59.5,53.7,30.35,SSE,158,0.0,0.0,81,0.00,,,0.00,WUHU216HW,2013-10-15 02:57:00,
2013-10-14 23:03:00,59.5,53.7,30.35,SSE,158,0.0,0.0,81,0.00,,,0.00,WUHU216HW,2013-10-15 03:03:00,
2013-10-14 23:08:00,59.5,53.7,30.35,SSE,158,0.0,0.0,81,0.00,,,0.00,WUHU216HW,2013-10-15 03:08:00,
2013-10-14 23:13:00,59.3,53.5,30.35,SSE,158,0.0,0.0,81,0.00,,,0.00,WUHU216HW,2013-10-15 03:13:00,
2013-10-14 23:18:00,59.3,53.5,30.35,SSE,158,0.0,0.0,81,0.00,,,0.00,WUHU216HW,2013-10-15 03:18:00,
2013-10-14 23:23:00,59.1,53.3,30.34,SSE,158,0.0,0.0,81,0.00,,,0.00,WUHU216HW,2013-10-15 03:23:00,
2013-10-14 23:28:00,58.8,53.2,30.34,SSE,158,0.0,0.0,81,0.00,,,0.00,WUHU216HW,2013-10-15 03:28:00,
2013-10-14 23:33:00,58.8,53.0,30.34,SSE,158,0.0,0.0,81,0.00,,,0.00,WUHU216HW,2013-10-15 03:33:00,
2013-10-14 23:38:00,58.8,53.0,30.34,SSE,158,0.0,0.0,81,0.00,,,0.00,WUHU216HW,2013-10-15 03:38:00,
2013-10-14 23:43:00,58.8,53.3,30.34,SSE,158,0.0,0.0,82,0.00,,,0.00,WUHU216HW,2013-10-15 03:43:00,
2013-10-14 23:48:00,58.6,53.1,30.34,SSE,158,0.0,0.0,82,0.00,,,0.00,WUHU216HW,2013-10-15 03:48:00,
2013-10-14 23:53:00,58.2,52.8,30.34,SSE,158,0.0,0.0,82,0.00,,,0.00,WUHU216HW,2013-10-15 03:53:00,
2013-10-14 23:58:00,58.1,52.6,30.34,SSE,158,0.0,0.0,82,0.00,,,0.00,WUHU216HW,2013-10-15 03:58:00,